Terminal Aerodrome Forecast
Issued by NWS Central Illinois

Home | Current Version | Previous Version | Text Only | Print | Product List | Glossary On
Versions: 1 2 3 4 5 6 7 8 9 10 11 12 13 14 15 16 17
000
FTUS43 KILX 211700
TAFSPI
TAF
KSPI 211721Z 2118/2218 02010KT P6SM SCT040
     FM220000 06004KT P6SM SKC
      TEMPO 2210/2212 4SM BR=

USA.gov is the U.S. government's official web portal to all federal, state and local government web resources and services.